sensor_id;sensor_type;location;lat;lon;timestamp;P1;durP1;ratioP1;P2;durP2;ratioP2
7971;SDS011;4031;49.758;6.120;2023-05-07T00:00:37;8.23;;;7.40;;
7971;SDS011;4031;49.758;6.120;2023-05-07T00:03:02;9.80;;;8.80;;
7971;SDS011;4031;49.758;6.120;2023-05-07T00:05:28;8.00;;;7.10;;
7971;SDS011;4031;49.758;6.120;2023-05-07T00:07:54;9.03;;;7.80;;
7971;SDS011;4031;49.758;6.120;2023-05-07T00:10:20;9.77;;;7.37;;
7971;SDS011;4031;49.758;6.120;2023-05-07T00:12:46;13.47;;;7.53;;
7971;SDS011;4031;49.758;6.120;2023-05-07T00:15:11;8.53;;;7.57;;
7971;SDS011;4031;49.758;6.120;2023-05-07T00:17:37;13.90;;;8.97;;
7971;SDS011;4031;49.758;6.120;2023-05-07T00:20:03;10.73;;;8.73;;
7971;SDS011;4031;49.758;6.120;2023-05-07T00:22:31;9.50;;;7.50;;
7971;SDS011;4031;49.758;6.120;2023-05-07T00:24:57;9.87;;;8.40;;
7971;SDS011;4031;49.758;6.120;2023-05-07T00:27:24;8.87;;;7.97;;
7971;SDS011;4031;49.758;6.120;2023-05-07T00:29:50;11.47;;;8.10;;
7971;SDS011;4031;49.758;6.120;2023-05-07T00:32:15;9.70;;;8.60;;
7971;SDS011;4031;49.758;6.120;2023-05-07T00:34:42;9.17;;;8.00;;
7971;SDS011;4031;49.758;6.120;2023-05-07T00:37:08;9.53;;;8.00;;
7971;SDS011;4031;49.758;6.120;2023-05-07T00:39:34;13.40;;;10.30;;
7971;SDS011;4031;49.758;6.120;2023-05-07T00:42:00;11.03;;;9.60;;
7971;SDS011;4031;49.758;6.120;2023-05-07T00:44:27;13.83;;;9.70;;
7971;SDS011;4031;49.758;6.120;2023-05-07T00:46:54;14.63;;;9.87;;
7971;SDS011;4031;49.758;6.120;2023-05-07T00:49:22;10.60;;;8.60;;
7971;SDS011;4031;49.758;6.120;2023-05-07T00:52:00;12.27;;;9.20;;
7971;SDS011;4031;49.758;6.120;2023-05-07T00:54:26;15.57;;;9.40;;
7971;SDS011;4031;49.758;6.120;2023-05-07T00:56:53;10.23;;;9.00;;
7971;SDS011;4031;49.758;6.120;2023-05-07T00:59:20;11.03;;;8.07;;
7971;SDS011;4031;49.758;6.120;2023-05-07T01:01:45;15.60;;;10.27;;
7971;SDS011;4031;49.758;6.120;2023-05-07T01:04:11;12.70;;;8.87;;
7971;SDS011;4031;49.758;6.120;2023-05-07T01:06:37;15.40;;;9.33;;
7971;SDS011;4031;49.758;6.120;2023-05-07T01:09:03;11.87;;;9.20;;
7971;SDS011;4031;49.758;6.120;2023-05-07T01:11:29;11.07;;;8.80;;
7971;SDS011;4031;49.758;6.120;2023-05-07T01:13:55;10.97;;;8.13;;
7971;SDS011;4031;49.758;6.120;2023-05-07T01:16:23;11.87;;;8.10;;
7971;SDS011;4031;49.758;6.120;2023-05-07T01:18:49;10.10;;;8.60;;
7971;SDS011;4031;49.758;6.120;2023-05-07T01:21:15;10.23;;;8.33;;
7971;SDS011;4031;49.758;6.120;2023-05-07T01:23:43;12.07;;;7.63;;
7971;SDS011;4031;49.758;6.120;2023-05-07T01:26:10;11.37;;;8.90;;
7971;SDS011;4031;49.758;6.120;2023-05-07T01:28:36;11.17;;;8.53;;
7971;SDS011;4031;49.758;6.120;2023-05-07T01:31:02;10.07;;;8.37;;
7971;SDS011;4031;49.758;6.120;2023-05-07T01:33:29;11.27;;;8.90;;
7971;SDS011;4031;49.758;6.120;2023-05-07T01:35:59;15.70;;;9.30;;
7971;SDS011;4031;49.758;6.120;2023-05-07T01:38:27;10.53;;;8.83;;
7971;SDS011;4031;49.758;6.120;2023-05-07T01:40:53;16.73;;;10.13;;
7971;SDS011;4031;49.758;6.120;2023-05-07T01:43:19;14.33;;;10.80;;
7971;SDS011;4031;49.758;6.120;2023-05-07T01:45:45;13.50;;;9.73;;
7971;SDS011;4031;49.758;6.120;2023-05-07T01:48:14;12.87;;;10.53;;
7971;SDS011;4031;49.758;6.120;2023-05-07T01:50:46;12.07;;;9.83;;
7971;SDS011;4031;49.758;6.120;2023-05-07T01:53:13;14.33;;;9.40;;
7971;SDS011;4031;49.758;6.120;2023-05-07T01:55:38;11.43;;;9.10;;
7971;SDS011;4031;49.758;6.120;2023-05-07T01:58:05;11.37;;;8.27;;
7971;SDS011;4031;49.758;6.120;2023-05-07T02:00:30;10.40;;;8.47;;
7971;SDS011;4031;49.758;6.120;2023-05-07T02:02:57;10.60;;;8.50;;
7971;SDS011;4031;49.758;6.120;2023-05-07T02:05:23;8.93;;;7.53;;
7971;SDS011;4031;49.758;6.120;2023-05-07T02:07:48;13.40;;;8.70;;
7971;SDS011;4031;49.758;6.120;2023-05-07T02:10:14;10.83;;;7.80;;
7971;SDS011;4031;49.758;6.120;2023-05-07T02:12:40;14.93;;;9.37;;
7971;SDS011;4031;49.758;6.120;2023-05-07T02:15:06;13.20;;;9.07;;
7971;SDS011;4031;49.758;6.120;2023-05-07T02:17:32;14.17;;;9.87;;
7971;SDS011;4031;49.758;6.120;2023-05-07T02:19:58;13.00;;;9.50;;
7971;SDS011;4031;49.758;6.120;2023-05-07T02:22:24;13.83;;;9.27;;
7971;SDS011;4031;49.758;6.120;2023-05-07T02:24:50;13.17;;;9.50;;
7971;SDS011;4031;49.758;6.120;2023-05-07T02:27:16;13.23;;;8.73;;
7971;SDS011;4031;49.758;6.120;2023-05-07T02:29:42;14.90;;;10.20;;
7971;SDS011;4031;49.758;6.120;2023-05-07T02:32:07;11.87;;;9.20;;
7971;SDS011;4031;49.758;6.120;2023-05-07T02:34:33;15.60;;;11.03;;
7971;SDS011;4031;49.758;6.120;2023-05-07T02:36:59;15.20;;;9.57;;
7971;SDS011;4031;49.758;6.120;2023-05-07T02:39:24;9.90;;;8.53;;
7971;SDS011;4031;49.758;6.120;2023-05-07T02:41:50;15.37;;;10.13;;
7971;SDS011;4031;49.758;6.120;2023-05-07T02:44:16;15.90;;;11.43;;
7971;SDS011;4031;49.758;6.120;2023-05-07T02:46:42;17.70;;;10.40;;
7971;SDS011;4031;49.758;6.120;2023-05-07T02:49:07;12.80;;;9.73;;
7971;SDS011;4031;49.758;6.120;2023-05-07T02:51:33;14.43;;;9.63;;
7971;SDS011;4031;49.758;6.120;2023-05-07T02:53:59;13.73;;;10.30;;
7971;SDS011;4031;49.758;6.120;2023-05-07T02:56:26;11.60;;;9.53;;
7971;SDS011;4031;49.758;6.120;2023-05-07T02:58:52;15.70;;;9.60;;
7971;SDS011;4031;49.758;6.120;2023-05-07T03:01:17;15.97;;;8.87;;
7971;SDS011;4031;49.758;6.120;2023-05-07T03:03:43;16.73;;;10.80;;
7971;SDS011;4031;49.758;6.120;2023-05-07T03:06:09;12.73;;;8.60;;
7971;SDS011;4031;49.758;6.120;2023-05-07T03:08:35;21.97;;;15.60;;
7971;SDS011;4031;49.758;6.120;2023-05-07T03:11:01;13.90;;;11.90;;
7971;SDS011;4031;49.758;6.120;2023-05-07T03:13:27;12.73;;;9.20;;
7971;SDS011;4031;49.758;6.120;2023-05-07T03:15:53;15.70;;;9.10;;
7971;SDS011;4031;49.758;6.120;2023-05-07T03:18:18;15.57;;;11.20;;
7971;SDS011;4031;49.758;6.120;2023-05-07T03:20:44;13.27;;;10.10;;
7971;SDS011;4031;49.758;6.120;2023-05-07T03:23:10;14.07;;;9.47;;
7971;SDS011;4031;49.758;6.120;2023-05-07T03:25:36;17.13;;;9.20;;
7971;SDS011;4031;49.758;6.120;2023-05-07T03:28:02;13.90;;;9.83;;
7971;SDS011;4031;49.758;6.120;2023-05-07T03:30:28;14.67;;;10.23;;
7971;SDS011;4031;49.758;6.120;2023-05-07T03:32:53;9.87;;;8.50;;
7971;SDS011;4031;49.758;6.120;2023-05-07T03:35:19;13.27;;;9.00;;
7971;SDS011;4031;49.758;6.120;2023-05-07T03:37:45;17.23;;;9.63;;
7971;SDS011;4031;49.758;6.120;2023-05-07T03:40:11;13.50;;;10.40;;
7971;SDS011;4031;49.758;6.120;2023-05-07T03:42:37;12.97;;;9.50;;
7971;SDS011;4031;49.758;6.120;2023-05-07T03:45:03;11.60;;;9.23;;
7971;SDS011;4031;49.758;6.120;2023-05-07T03:47:29;14.83;;;9.43;;
7971;SDS011;4031;49.758;6.120;2023-05-07T03:49:55;16.60;;;10.03;;
7971;SDS011;4031;49.758;6.120;2023-05-07T03:52:21;17.07;;;11.27;;
7971;SDS011;4031;49.758;6.120;2023-05-07T03:54:50;19.80;;;17.20;;
7971;SDS011;4031;49.758;6.120;2023-05-07T03:57:17;31.60;;;28.40;;
7971;SDS011;4031;49.758;6.120;2023-05-07T03:59:43;21.47;;;12.40;;
7971;SDS011;4031;49.758;6.120;2023-05-07T04:02:09;16.40;;;11.97;;
7971;SDS011;4031;49.758;6.120;2023-05-07T04:04:34;17.70;;;11.40;;
7971;SDS011;4031;49.758;6.120;2023-05-07T04:07:00;21.10;;;11.87;;
7971;SDS011;4031;49.758;6.120;2023-05-07T04:09:26;18.20;;;11.40;;
7971;SDS011;4031;49.758;6.120;2023-05-07T04:11:52;14.37;;;10.93;;
7971;SDS011;4031;49.758;6.120;2023-05-07T04:14:18;17.10;;;12.03;;
7971;SDS011;4031;49.758;6.120;2023-05-07T04:16:43;16.80;;;11.80;;
7971;SDS011;4031;49.758;6.120;2023-05-07T04:19:09;14.80;;;11.70;;
7971;SDS011;4031;49.758;6.120;2023-05-07T04:21:35;19.63;;;11.40;;
7971;SDS011;4031;49.758;6.120;2023-05-07T04:24:02;17.93;;;10.60;;
7971;SDS011;4031;49.758;6.120;2023-05-07T04:26:50;19.73;;;11.10;;
7971;SDS011;4031;49.758;6.120;2023-05-07T04:29:16;15.67;;;10.93;;
7971;SDS011;4031;49.758;6.120;2023-05-07T04:31:42;18.57;;;12.00;;
7971;SDS011;4031;49.758;6.120;2023-05-07T04:34:10;14.40;;;11.10;;
7971;SDS011;4031;49.758;6.120;2023-05-07T04:36:37;17.23;;;11.40;;
7971;SDS011;4031;49.758;6.120;2023-05-07T04:39:03;19.47;;;11.37;;
7971;SDS011;4031;49.758;6.120;2023-05-07T04:41:29;15.70;;;10.53;;
7971;SDS011;4031;49.758;6.120;2023-05-07T04:43:56;18.93;;;11.77;;
7971;SDS011;4031;49.758;6.120;2023-05-07T04:46:23;17.00;;;11.73;;
7971;SDS011;4031;49.758;6.120;2023-05-07T04:48:49;21.00;;;12.43;;
7971;SDS011;4031;49.758;6.120;2023-05-07T04:51:16;16.40;;;11.77;;
7971;SDS011;4031;49.758;6.120;2023-05-07T04:53:42;17.60;;;11.87;;
7971;SDS011;4031;49.758;6.120;2023-05-07T04:56:08;14.40;;;11.07;;
7971;SDS011;4031;49.758;6.120;2023-05-07T04:58:34;17.20;;;11.77;;
7971;SDS011;4031;49.758;6.120;2023-05-07T05:01:00;16.27;;;11.63;;
7971;SDS011;4031;49.758;6.120;2023-05-07T05:03:26;18.40;;;11.90;;
7971;SDS011;4031;49.758;6.120;2023-05-07T05:05:52;15.10;;;10.60;;
7971;SDS011;4031;49.758;6.120;2023-05-07T05:08:24;17.17;;;11.07;;
7971;SDS011;4031;49.758;6.120;2023-05-07T05:10:50;19.83;;;12.10;;
7971;SDS011;4031;49.758;6.120;2023-05-07T05:13:15;13.47;;;11.60;;
7971;SDS011;4031;49.758;6.120;2023-05-07T05:15:42;18.77;;;11.73;;
7971;SDS011;4031;49.758;6.120;2023-05-07T05:18:08;18.03;;;12.13;;
7971;SDS011;4031;49.758;6.120;2023-05-07T05:20:34;20.63;;;11.77;;
7971;SDS011;4031;49.758;6.120;2023-05-07T05:23:00;125.73;;;21.33;;
7971;SDS011;4031;49.758;6.120;2023-05-07T05:25:25;123.93;;;22.70;;
7971;SDS011;4031;49.758;6.120;2023-05-07T05:27:52;27.57;;;15.27;;
7971;SDS011;4031;49.758;6.120;2023-05-07T05:30:18;21.47;;;13.53;;
7971;SDS011;4031;49.758;6.120;2023-05-07T05:32:44;19.43;;;12.50;;
7971;SDS011;4031;49.758;6.120;2023-05-07T05:35:10;18.40;;;11.90;;
7971;SDS011;4031;49.758;6.120;2023-05-07T05:37:36;19.63;;;12.30;;
7971;SDS011;4031;49.758;6.120;2023-05-07T05:40:02;16.53;;;12.47;;
7971;SDS011;4031;49.758;6.120;2023-05-07T05:42:28;12.83;;;11.33;;
7971;SDS011;4031;49.758;6.120;2023-05-07T05:44:54;14.63;;;11.30;;
7971;SDS011;4031;49.758;6.120;2023-05-07T05:47:20;17.43;;;10.30;;
7971;SDS011;4031;49.758;6.120;2023-05-07T05:49:46;12.50;;;10.63;;
7971;SDS011;4031;49.758;6.120;2023-05-07T05:52:11;11.70;;;9.63;;
7971;SDS011;4031;49.758;6.120;2023-05-07T05:54:39;12.40;;;10.10;;
7971;SDS011;4031;49.758;6.120;2023-05-07T05:57:05;10.23;;;9.20;;
7971;SDS011;4031;49.758;6.120;2023-05-07T05:59:34;10.70;;;9.60;;
7971;SDS011;4031;49.758;6.120;2023-05-07T06:02:00;10.47;;;9.47;;
7971;SDS011;4031;49.758;6.120;2023-05-07T06:04:26;10.07;;;9.00;;
7971;SDS011;4031;49.758;6.120;2023-05-07T06:06:52;9.67;;;8.77;;
7971;SDS011;4031;49.758;6.120;2023-05-07T06:09:18;8.67;;;7.87;;
7971;SDS011;4031;49.758;6.120;2023-05-07T06:11:45;8.47;;;7.67;;
7971;SDS011;4031;49.758;6.120;2023-05-07T06:14:11;8.57;;;7.37;;
7971;SDS011;4031;49.758;6.120;2023-05-07T06:16:37;7.00;;;6.40;;
7971;SDS011;4031;49.758;6.120;2023-05-07T06:19:03;5.67;;;5.17;;
7971;SDS011;4031;49.758;6.120;2023-05-07T06:21:29;5.13;;;4.70;;
7971;SDS011;4031;49.758;6.120;2023-05-07T06:23:55;5.17;;;4.33;;
7971;SDS011;4031;49.758;6.120;2023-05-07T06:26:21;4.93;;;4.53;;
7971;SDS011;4031;49.758;6.120;2023-05-07T06:28:47;4.40;;;4.00;;
7971;SDS011;4031;49.758;6.120;2023-05-07T06:31:14;4.70;;;4.30;;
7971;SDS011;4031;49.758;6.120;2023-05-07T06:33:42;4.43;;;4.03;;
7971;SDS011;4031;49.758;6.120;2023-05-07T06:36:09;4.07;;;3.77;;
7971;SDS011;4031;49.758;6.120;2023-05-07T06:38:35;3.90;;;3.60;;
7971;SDS011;4031;49.758;6.120;2023-05-07T06:41:02;5.57;;;3.67;;
7971;SDS011;4031;49.758;6.120;2023-05-07T06:43:28;3.77;;;3.50;;
7971;SDS011;4031;49.758;6.120;2023-05-07T06:45:54;4.13;;;3.83;;
7971;SDS011;4031;49.758;6.120;2023-05-07T06:48:20;4.60;;;4.20;;
7971;SDS011;4031;49.758;6.120;2023-05-07T06:50:46;4.50;;;4.10;;
7971;SDS011;4031;49.758;6.120;2023-05-07T06:53:12;3.67;;;3.40;;
7971;SDS011;4031;49.758;6.120;2023-05-07T06:55:41;4.00;;;3.67;;
7971;SDS011;4031;49.758;6.120;2023-05-07T06:58:07;4.30;;;4.00;;
7971;SDS011;4031;49.758;6.120;2023-05-07T07:00:33;3.67;;;3.40;;
7971;SDS011;4031;49.758;6.120;2023-05-07T07:03:00;4.33;;;4.00;;
7971;SDS011;4031;49.758;6.120;2023-05-07T07:05:26;3.80;;;3.50;;
7971;SDS011;4031;49.758;6.120;2023-05-07T07:07:52;7.17;;;3.03;;
7971;SDS011;4031;49.758;6.120;2023-05-07T07:10:19;4.07;;;3.77;;
7971;SDS011;4031;49.758;6.120;2023-05-07T07:12:53;3.90;;;3.27;;
7971;SDS011;4031;49.758;6.120;2023-05-07T07:15:19;3.90;;;3.60;;
7971;SDS011;4031;49.758;6.120;2023-05-07T07:17:50;3.90;;;3.60;;
7971;SDS011;4031;49.758;6.120;2023-05-07T07:20:16;4.53;;;4.10;;
7971;SDS011;4031;49.758;6.120;2023-05-07T07:22:42;5.70;;;3.80;;
7971;SDS011;4031;49.758;6.120;2023-05-07T07:25:09;5.00;;;3.57;;
7971;SDS011;4031;49.758;6.120;2023-05-07T07:27:38;3.57;;;3.33;;
7971;SDS011;4031;49.758;6.120;2023-05-07T07:30:05;3.60;;;3.33;;
7971;SDS011;4031;49.758;6.120;2023-05-07T07:32:33;3.30;;;3.10;;
7971;SDS011;4031;49.758;6.120;2023-05-07T07:34:59;4.70;;;3.60;;
7971;SDS011;4031;49.758;6.120;2023-05-07T07:37:26;3.20;;;3.00;;
7971;SDS011;4031;49.758;6.120;2023-05-07T07:39:52;3.90;;;3.23;;
7971;SDS011;4031;49.758;6.120;2023-05-07T07:42:19;3.30;;;3.00;;
7971;SDS011;4031;49.758;6.120;2023-05-07T07:44:45;3.67;;;3.10;;
7971;SDS011;4031;49.758;6.120;2023-05-07T07:47:11;3.47;;;2.97;;
7971;SDS011;4031;49.758;6.120;2023-05-07T07:49:37;3.10;;;2.90;;
7971;SDS011;4031;49.758;6.120;2023-05-07T07:52:04;3.40;;;3.00;;
7971;SDS011;4031;49.758;6.120;2023-05-07T07:54:39;2.83;;;2.63;;
7971;SDS011;4031;49.758;6.120;2023-05-07T08:00:19;2.80;;;2.60;;
7971;SDS011;4031;49.758;6.120;2023-05-07T08:02:45;3.00;;;2.20;;
7971;SDS011;4031;49.758;6.120;2023-05-07T08:05:10;5.80;;;2.90;;
7971;SDS011;4031;49.758;6.120;2023-05-07T08:07:36;2.70;;;2.47;;
7971;SDS011;4031;49.758;6.120;2023-05-07T08:10:02;3.13;;;2.93;;
7971;SDS011;4031;49.758;6.120;2023-05-07T08:12:28;3.03;;;2.70;;
7971;SDS011;4031;49.758;6.120;2023-05-07T08:14:54;3.07;;;2.40;;
7971;SDS011;4031;49.758;6.120;2023-05-07T08:17:20;2.70;;;2.50;;
7971;SDS011;4031;49.758;6.120;2023-05-07T08:19:47;3.63;;;2.63;;
7971;SDS011;4031;49.758;6.120;2023-05-07T08:22:13;2.30;;;2.10;;
7971;SDS011;4031;49.758;6.120;2023-05-07T08:24:39;2.77;;;2.57;;
7971;SDS011;4031;49.758;6.120;2023-05-07T08:27:05;2.63;;;2.50;;
7971;SDS011;4031;49.758;6.120;2023-05-07T08:29:31;4.67;;;2.80;;
7971;SDS011;4031;49.758;6.120;2023-05-07T08:31:56;2.37;;;2.17;;
7971;SDS011;4031;49.758;6.120;2023-05-07T08:34:22;2.87;;;2.60;;
7971;SDS011;4031;49.758;6.120;2023-05-07T08:36:48;2.43;;;2.33;;
7971;SDS011;4031;49.758;6.120;2023-05-07T08:39:16;2.33;;;2.17;;
7971;SDS011;4031;49.758;6.120;2023-05-07T08:41:45;2.43;;;2.20;;
7971;SDS011;4031;49.758;6.120;2023-05-07T08:44:13;2.53;;;2.33;;
7971;SDS011;4031;49.758;6.120;2023-05-07T08:46:39;2.77;;;2.57;;
7971;SDS011;4031;49.758;6.120;2023-05-07T08:49:06;2.67;;;2.47;;
7971;SDS011;4031;49.758;6.120;2023-05-07T08:51:33;2.20;;;1.87;;
7971;SDS011;4031;49.758;6.120;2023-05-07T08:53:59;2.83;;;2.63;;
7971;SDS011;4031;49.758;6.120;2023-05-07T08:56:26;2.30;;;2.10;;
7971;SDS011;4031;49.758;6.120;2023-05-07T08:58:52;2.73;;;2.53;;
7971;SDS011;4031;49.758;6.120;2023-05-07T09:01:21;2.60;;;2.20;;
7971;SDS011;4031;49.758;6.120;2023-05-07T09:03:47;2.13;;;2.03;;
7971;SDS011;4031;49.758;6.120;2023-05-07T09:06:13;3.70;;;3.20;;
7971;SDS011;4031;49.758;6.120;2023-05-07T09:08:39;2.33;;;1.97;;
7971;SDS011;4031;49.758;6.120;2023-05-07T09:11:04;3.73;;;2.23;;
7971;SDS011;4031;49.758;6.120;2023-05-07T09:13:30;3.07;;;2.20;;
7971;SDS011;4031;49.758;6.120;2023-05-07T09:15:56;2.50;;;2.30;;
7971;SDS011;4031;49.758;6.120;2023-05-07T09:18:23;2.10;;;1.90;;
7971;SDS011;4031;49.758;6.120;2023-05-07T09:20:50;2.70;;;1.87;;
7971;SDS011;4031;49.758;6.120;2023-05-07T09:23:16;2.10;;;2.00;;
7971;SDS011;4031;49.758;6.120;2023-05-07T09:25:41;1.93;;;1.83;;
7971;SDS011;4031;49.758;6.120;2023-05-07T09:28:07;2.10;;;1.90;;
7971;SDS011;4031;49.758;6.120;2023-05-07T09:30:35;2.10;;;1.57;;
7971;SDS011;4031;49.758;6.120;2023-05-07T09:33:01;1.57;;;1.47;;
7971;SDS011;4031;49.758;6.120;2023-05-07T09:35:29;1.97;;;1.87;;
7971;SDS011;4031;49.758;6.120;2023-05-07T09:37:59;1.70;;;1.60;;
7971;SDS011;4031;49.758;6.120;2023-05-07T09:40:27;1.53;;;1.43;;
7971;SDS011;4031;49.758;6.120;2023-05-07T09:42:54;1.73;;;1.63;;
7971;SDS011;4031;49.758;6.120;2023-05-07T09:45:29;1.90;;;1.80;;
7971;SDS011;4031;49.758;6.120;2023-05-07T09:47:57;2.10;;;1.90;;
7971;SDS011;4031;49.758;6.120;2023-05-07T09:50:31;1.50;;;1.40;;
7971;SDS011;4031;49.758;6.120;2023-05-07T09:53:03;1.57;;;1.47;;
7971;SDS011;4031;49.758;6.120;2023-05-07T09:55:29;1.80;;;1.70;;
7971;SDS011;4031;49.758;6.120;2023-05-07T09:57:56;4.03;;;3.73;;
7971;SDS011;4031;49.758;6.120;2023-05-07T10:00:24;2.10;;;2.00;;
7971;SDS011;4031;49.758;6.120;2023-05-07T10:02:52;2.50;;;1.73;;
7971;SDS011;4031;49.758;6.120;2023-05-07T10:05:18;1.70;;;1.60;;
7971;SDS011;4031;49.758;6.120;2023-05-07T10:07:47;2.03;;;1.93;;
7971;SDS011;4031;49.758;6.120;2023-05-07T10:10:14;2.10;;;2.00;;
7971;SDS011;4031;49.758;6.120;2023-05-07T10:12:43;1.80;;;1.67;;
7971;SDS011;4031;49.758;6.120;2023-05-07T10:15:10;2.30;;;2.20;;
7971;SDS011;4031;49.758;6.120;2023-05-07T10:17:37;1.60;;;1.50;;
7971;SDS011;4031;49.758;6.120;2023-05-07T10:20:07;2.70;;;1.47;;
7971;SDS011;4031;49.758;6.120;2023-05-07T10:22:43;1.70;;;1.60;;
7971;SDS011;4031;49.758;6.120;2023-05-07T10:25:20;1.60;;;1.50;;
7971;SDS011;4031;49.758;6.120;2023-05-07T10:27:48;1.60;;;1.50;;
7971;SDS011;4031;49.758;6.120;2023-05-07T10:32:59;1.73;;;1.63;;
7971;SDS011;4031;49.758;6.120;2023-05-07T10:35:31;1.80;;;1.70;;
7971;SDS011;4031;49.758;6.120;2023-05-07T10:38:04;2.23;;;1.60;;
7971;SDS011;4031;49.758;6.120;2023-05-07T10:40:30;2.37;;;1.43;;
7971;SDS011;4031;49.758;6.120;2023-05-07T10:42:57;1.80;;;1.50;;
7971;SDS011;4031;49.758;6.120;2023-05-07T10:45:25;1.53;;;1.40;;
7971;SDS011;4031;49.758;6.120;2023-05-07T10:48:11;1.53;;;1.43;;
7971;SDS011;4031;49.758;6.120;2023-05-07T10:50:41;1.30;;;1.20;;
7971;SDS011;4031;49.758;6.120;2023-05-07T10:55:50;4.60;;;3.30;;
7971;SDS011;4031;49.758;6.120;2023-05-07T10:58:42;1.87;;;1.70;;
7971;SDS011;4031;49.758;6.120;2023-05-07T11:01:07;2.70;;;1.80;;
7971;SDS011;4031;49.758;6.120;2023-05-07T11:03:34;2.03;;;1.60;;
7971;SDS011;4031;49.758;6.120;2023-05-07T11:06:11;3.03;;;2.63;;
7971;SDS011;4031;49.758;6.120;2023-05-07T11:17:07;1.30;;;1.20;;
7971;SDS011;4031;49.758;6.120;2023-05-07T11:19:50;1.87;;;1.77;;
7971;SDS011;4031;49.758;6.120;2023-05-07T11:25:00;1.30;;;1.20;;
7971;SDS011;4031;49.758;6.120;2023-05-07T11:27:26;2.20;;;2.00;;
7971;SDS011;4031;49.758;6.120;2023-05-07T11:29:52;1.70;;;1.60;;
7971;SDS011;4031;49.758;6.120;2023-05-07T11:34:52;1.60;;;1.50;;
7971;SDS011;4031;49.758;6.120;2023-05-07T11:37:19;2.77;;;1.97;;
7971;SDS011;4031;49.758;6.120;2023-05-07T11:39:46;2.03;;;1.80;;
7971;SDS011;4031;49.758;6.120;2023-05-07T11:45:10;1.63;;;1.53;;
7971;SDS011;4031;49.758;6.120;2023-05-07T11:47:36;2.03;;;1.90;;
7971;SDS011;4031;49.758;6.120;2023-05-07T11:50:03;3.10;;;2.20;;
7971;SDS011;4031;49.758;6.120;2023-05-07T11:52:33;1.60;;;1.40;;
7971;SDS011;4031;49.758;6.120;2023-05-07T11:55:00;2.03;;;1.87;;
7971;SDS011;4031;49.758;6.120;2023-05-07T11:57:28;2.80;;;1.83;;
7971;SDS011;4031;49.758;6.120;2023-05-07T11:59:54;1.77;;;1.63;;
7971;SDS011;4031;49.758;6.120;2023-05-07T12:02:24;3.00;;;1.70;;
7971;SDS011;4031;49.758;6.120;2023-05-07T12:04:51;1.73;;;1.50;;
7971;SDS011;4031;49.758;6.120;2023-05-07T12:07:17;2.00;;;1.57;;
7971;SDS011;4031;49.758;6.120;2023-05-07T12:09:44;4.83;;;1.70;;
7971;SDS011;4031;49.758;6.120;2023-05-07T12:12:11;2.20;;;1.90;;
7971;SDS011;4031;49.758;6.120;2023-05-07T12:14:38;1.40;;;1.30;;
7971;SDS011;4031;49.758;6.120;2023-05-07T12:17:06;1.90;;;1.80;;
7971;SDS011;4031;49.758;6.120;2023-05-07T12:19:33;1.80;;;1.70;;
7971;SDS011;4031;49.758;6.120;2023-05-07T12:22:01;1.60;;;1.50;;
7971;SDS011;4031;49.758;6.120;2023-05-07T12:27:13;2.00;;;1.53;;
7971;SDS011;4031;49.758;6.120;2023-05-07T12:29:44;1.70;;;1.60;;
7971;SDS011;4031;49.758;6.120;2023-05-07T12:32:13;2.30;;;1.63;;
7971;SDS011;4031;49.758;6.120;2023-05-07T12:34:40;2.57;;;1.60;;
7971;SDS011;4031;49.758;6.120;2023-05-07T12:37:06;1.57;;;1.47;;
7971;SDS011;4031;49.758;6.120;2023-05-07T12:39:32;2.20;;;1.57;;
7971;SDS011;4031;49.758;6.120;2023-05-07T12:41:58;2.13;;;1.93;;
7971;SDS011;4031;49.758;6.120;2023-05-07T12:44:25;3.97;;;1.73;;
7971;SDS011;4031;49.758;6.120;2023-05-07T12:46:55;1.93;;;1.80;;
7971;SDS011;4031;49.758;6.120;2023-05-07T12:49:22;1.87;;;1.77;;
7971;SDS011;4031;49.758;6.120;2023-05-07T12:51:49;2.73;;;1.67;;
7971;SDS011;4031;49.758;6.120;2023-05-07T12:54:31;3.03;;;1.93;;
7971;SDS011;4031;49.758;6.120;2023-05-07T12:57:06;1.70;;;1.60;;
7971;SDS011;4031;49.758;6.120;2023-05-07T12:59:37;2.40;;;1.70;;
7971;SDS011;4031;49.758;6.120;2023-05-07T13:02:05;2.53;;;1.60;;
7971;SDS011;4031;49.758;6.120;2023-05-07T13:04:31;2.83;;;1.60;;
7971;SDS011;4031;49.758;6.120;2023-05-07T13:06:57;1.57;;;1.47;;
7971;SDS011;4031;49.758;6.120;2023-05-07T13:09:24;1.63;;;1.30;;
7971;SDS011;4031;49.758;6.120;2023-05-07T13:11:49;1.90;;;1.80;;
7971;SDS011;4031;49.758;6.120;2023-05-07T13:14:15;1.80;;;1.70;;
7971;SDS011;4031;49.758;6.120;2023-05-07T13:16:41;1.90;;;1.50;;
7971;SDS011;4031;49.758;6.120;2023-05-07T13:19:07;1.50;;;1.40;;
7971;SDS011;4031;49.758;6.120;2023-05-07T13:21:32;3.17;;;1.80;;
7971;SDS011;4031;49.758;6.120;2023-05-07T13:23:58;1.40;;;1.30;;
7971;SDS011;4031;49.758;6.120;2023-05-07T13:26:24;3.60;;;2.20;;
7971;SDS011;4031;49.758;6.120;2023-05-07T13:28:51;1.30;;;1.20;;
7971;SDS011;4031;49.758;6.120;2023-05-07T13:31:18;1.67;;;1.40;;
7971;SDS011;4031;49.758;6.120;2023-05-07T13:33:45;3.03;;;1.50;;
7971;SDS011;4031;49.758;6.120;2023-05-07T13:36:11;1.60;;;1.50;;
7971;SDS011;4031;49.758;6.120;2023-05-07T13:38:37;1.67;;;1.57;;
7971;SDS011;4031;49.758;6.120;2023-05-07T13:41:04;1.60;;;1.50;;
7971;SDS011;4031;49.758;6.120;2023-05-07T13:43:30;1.50;;;1.40;;
7971;SDS011;4031;49.758;6.120;2023-05-07T13:45:56;2.80;;;1.77;;
7971;SDS011;4031;49.758;6.120;2023-05-07T13:48:22;2.40;;;1.83;;
7971;SDS011;4031;49.758;6.120;2023-05-07T13:50:48;1.53;;;1.43;;
7971;SDS011;4031;49.758;6.120;2023-05-07T13:53:13;2.50;;;1.60;;
7971;SDS011;4031;49.758;6.120;2023-05-07T13:55:42;1.50;;;1.40;;
7971;SDS011;4031;49.758;6.120;2023-05-07T13:58:09;1.93;;;1.80;;
7971;SDS011;4031;49.758;6.120;2023-05-07T14:00:35;1.93;;;1.73;;
7971;SDS011;4031;49.758;6.120;2023-05-07T14:03:01;2.00;;;1.90;;
7971;SDS011;4031;49.758;6.120;2023-05-07T14:05:26;1.80;;;1.70;;
7971;SDS011;4031;49.758;6.120;2023-05-07T14:07:53;2.20;;;1.70;;
7971;SDS011;4031;49.758;6.120;2023-05-07T14:10:22;1.90;;;1.80;;
7971;SDS011;4031;49.758;6.120;2023-05-07T14:12:48;3.70;;;2.20;;
7971;SDS011;4031;49.758;6.120;2023-05-07T14:15:14;3.93;;;2.13;;
7971;SDS011;4031;49.758;6.120;2023-05-07T14:17:40;2.07;;;1.87;;
7971;SDS011;4031;49.758;6.120;2023-05-07T14:20:07;2.40;;;2.20;;
7971;SDS011;4031;49.758;6.120;2023-05-07T14:22:33;3.07;;;1.93;;
7971;SDS011;4031;49.758;6.120;2023-05-07T14:24:59;3.43;;;2.17;;
7971;SDS011;4031;49.758;6.120;2023-05-07T14:27:25;3.03;;;2.30;;
7971;SDS011;4031;49.758;6.120;2023-05-07T14:29:51;2.20;;;1.87;;
7971;SDS011;4031;49.758;6.120;2023-05-07T14:32:17;2.60;;;2.40;;
7971;SDS011;4031;49.758;6.120;2023-05-07T14:34:43;1.83;;;1.73;;
7971;SDS011;4031;49.758;6.120;2023-05-07T14:37:10;2.00;;;1.90;;
7971;SDS011;4031;49.758;6.120;2023-05-07T14:39:35;1.50;;;1.40;;
7971;SDS011;4031;49.758;6.120;2023-05-07T14:42:01;2.63;;;2.20;;
7971;SDS011;4031;49.758;6.120;2023-05-07T14:44:27;1.80;;;1.70;;
7971;SDS011;4031;49.758;6.120;2023-05-07T14:46:53;2.70;;;2.30;;
7971;SDS011;4031;49.758;6.120;2023-05-07T14:49:19;2.40;;;2.20;;
7971;SDS011;4031;49.758;6.120;2023-05-07T14:51:45;2.10;;;2.00;;
7971;SDS011;4031;49.758;6.120;2023-05-07T14:54:12;2.57;;;2.33;;
7971;SDS011;4031;49.758;6.120;2023-05-07T14:56:38;2.60;;;2.40;;
7971;SDS011;4031;49.758;6.120;2023-05-07T14:59:04;3.50;;;2.53;;
7971;SDS011;4031;49.758;6.120;2023-05-07T15:01:30;2.50;;;2.37;;
7971;SDS011;4031;49.758;6.120;2023-05-07T15:03:56;2.50;;;2.27;;
7971;SDS011;4031;49.758;6.120;2023-05-07T15:06:21;3.30;;;2.40;;
7971;SDS011;4031;49.758;6.120;2023-05-07T15:08:47;3.37;;;2.10;;
7971;SDS011;4031;49.758;6.120;2023-05-07T15:11:15;2.80;;;2.20;;
7971;SDS011;4031;49.758;6.120;2023-05-07T15:13:44;1.90;;;1.80;;
7971;SDS011;4031;49.758;6.120;2023-05-07T15:16:10;3.17;;;2.50;;
7971;SDS011;4031;49.758;6.120;2023-05-07T15:18:36;2.00;;;1.90;;
7971;SDS011;4031;49.758;6.120;2023-05-07T15:21:01;3.00;;;2.10;;
7971;SDS011;4031;49.758;6.120;2023-05-07T15:23:27;3.40;;;2.60;;
7971;SDS011;4031;49.758;6.120;2023-05-07T15:25:53;2.60;;;2.30;;
7971;SDS011;4031;49.758;6.120;2023-05-07T15:28:19;2.33;;;2.13;;
7971;SDS011;4031;49.758;6.120;2023-05-07T15:30:44;1.97;;;1.77;;
7971;SDS011;4031;49.758;6.120;2023-05-07T15:33:10;2.60;;;2.40;;